createdAt,value
2022-08-21T00:04:48.249Z,20.90
2022-08-21T00:09:59.395Z,20.48
2022-08-21T00:15:03.609Z,20.65
2022-08-21T00:20:11.221Z,20.18
2022-08-21T00:25:15.220Z,20.75
2022-08-21T00:30:23.232Z,20.17
2022-08-21T00:35:30.280Z,18.63
2022-08-21T00:40:37.051Z,20.04
2022-08-21T00:45:41.765Z,20.38
2022-08-21T00:50:48.411Z,20.52
2022-08-21T00:55:52.692Z,18.97
2022-08-21T01:01:06.791Z,20.24
2022-08-21T01:06:11.264Z,20.53
2022-08-21T01:11:14.023Z,18.81
2022-08-21T01:16:22.590Z,19.55
2022-08-21T01:21:28.968Z,20.35
2022-08-21T01:26:35.418Z,20.50
2022-08-21T01:31:38.338Z,20.21
2022-08-21T01:36:42.388Z,20.06
2022-08-21T01:41:45.544Z,20.20
2022-08-21T01:46:49.053Z,20.42
2022-08-21T01:51:53.129Z,20.07
2022-08-21T01:56:56.821Z,20.07
2022-08-21T02:01:59.517Z,19.62
2022-08-21T02:07:04.623Z,20.22
2022-08-21T02:12:11.647Z,19.81
2022-08-21T02:17:15.053Z,20.09
2022-08-21T02:22:19.127Z,19.88
2022-08-21T02:27:24.658Z,19.41
2022-08-21T02:32:30.039Z,19.88
2022-08-21T02:37:34.167Z,19.60
2022-08-21T02:42:37.210Z,19.87
2022-08-21T02:47:41.349Z,19.92
2022-08-21T02:52:47.710Z,19.38
2022-08-21T02:57:55.252Z,19.45
2022-08-21T03:02:59.425Z,19.84
2022-08-21T03:08:05.131Z,20.03
2022-08-21T03:13:07.919Z,20.03
2022-08-21T03:18:14.682Z,19.44
2022-08-21T03:23:19.730Z,19.15
2022-08-21T03:28:23.611Z,19.93
2022-08-21T03:33:28.467Z,19.28
2022-08-21T03:38:34.036Z,19.77
2022-08-21T03:43:37.075Z,19.93
2022-08-21T03:48:41.899Z,19.79
2022-08-21T03:53:46.704Z,19.25
2022-08-21T03:58:49.445Z,19.63
2022-08-21T04:03:52.179Z,19.72
2022-08-21T04:08:56.392Z,19.81
2022-08-21T04:13:59.456Z,19.44
2022-08-21T04:19:02.599Z,19.35
2022-08-21T04:24:08.242Z,19.53
2022-08-21T04:29:10.942Z,19.64
2022-08-21T04:34:14.402Z,19.58
2022-08-21T04:39:18.526Z,19.49
2022-08-21T04:44:21.984Z,19.11
2022-08-21T04:49:24.738Z,19.30
2022-08-21T04:54:28.860Z,19.13
2022-08-21T04:59:35.085Z,19.28
2022-08-21T05:04:44.362Z,19.01
2022-08-21T05:09:48.601Z,19.02
2022-08-21T05:14:51.367Z,18.54
2022-08-21T05:19:54.213Z,18.29
2022-08-21T05:24:59.227Z,18.26
2022-08-21T05:30:02.780Z,18.92
2022-08-21T05:35:07.326Z,18.77
2022-08-21T05:40:22.587Z,18.54
2022-08-21T05:45:42.948Z,18.43
2022-08-21T05:50:50.200Z,18.80
2022-08-21T05:55:56.917Z,18.43
2022-08-21T06:00:59.622Z,18.78
2022-08-21T06:06:04.265Z,18.72
2022-08-21T06:11:10.609Z,18.80
2022-08-21T06:16:15.787Z,18.82
2022-08-21T06:21:19.157Z,18.99
2022-08-21T06:26:23.690Z,18.85
2022-08-21T06:31:28.953Z,19.19
2022-08-21T06:36:31.601Z,19.19
2022-08-21T06:41:39.046Z,19.09
2022-08-21T06:46:41.996Z,19.15
2022-08-21T06:51:47.510Z,19.48
2022-08-21T06:56:51.832Z,19.62
2022-08-21T07:01:54.501Z,19.82
2022-08-21T07:06:57.301Z,19.98
2022-08-21T07:12:01.658Z,19.86
2022-08-21T07:17:04.859Z,19.93
2022-08-21T07:22:08.756Z,19.99
2022-08-21T07:27:17.717Z,20.04
2022-08-21T07:32:22.137Z,19.78
2022-08-21T07:37:25.996Z,20.06
2022-08-21T07:42:30.887Z,20.18
2022-08-21T07:47:42.491Z,20.35
2022-08-21T07:52:49.468Z,20.39
2022-08-21T07:57:53.682Z,20.35
2022-08-21T08:02:57.692Z,20.57
2022-08-21T08:08:07.409Z,20.68
2022-08-21T08:13:11.747Z,20.72
2022-08-21T08:18:14.980Z,20.75
2022-08-21T08:23:17.692Z,20.30
2022-08-21T08:28:25.076Z,20.77
2022-08-21T08:33:28.367Z,21.14
2022-08-21T08:38:31.558Z,21.32
2022-08-21T08:43:39.559Z,21.42
2022-08-21T08:48:53.388Z,21.11
2022-08-21T08:54:02.321Z,21.27
2022-08-21T08:59:13.943Z,21.37
2022-08-21T09:04:24.760Z,21.39
2022-08-21T09:09:35.978Z,21.50
2022-08-21T09:14:54.591Z,21.40
2022-08-21T09:20:11.963Z,21.38
2022-08-21T09:25:24.310Z,21.28
2022-08-21T09:30:31.779Z,21.43
2022-08-21T09:35:36.283Z,21.38
2022-08-21T09:40:44.409Z,21.39
2022-08-21T09:45:50.556Z,20.26
2022-08-21T09:50:54.976Z,21.76
2022-08-21T09:56:17.946Z,21.49
2022-08-21T10:01:27.527Z,21.82
2022-08-21T10:06:30.891Z,21.90
2022-08-21T10:11:35.339Z,21.95
2022-08-21T10:16:49.123Z,21.47
2022-08-21T10:22:02.512Z,21.90
2022-08-21T10:27:16.520Z,22.21
2022-08-21T10:32:40.305Z,22.31
2022-08-21T10:38:03.255Z,22.44
2022-08-21T10:43:21.429Z,22.04
2022-08-21T10:48:31.919Z,22.59
2022-08-21T10:53:57.605Z,22.51
2022-08-21T10:59:26.574Z,22.63
2022-08-21T11:04:49.011Z,22.40
2022-08-21T11:09:54.094Z,22.81
2022-08-21T11:15:05.805Z,23.00
2022-08-21T11:20:15.642Z,22.89
2022-08-21T11:25:24.892Z,23.16
2022-08-21T11:30:43.215Z,23.15
2022-08-21T11:35:53.381Z,23.46
2022-08-21T11:41:10.402Z,23.59
2022-08-21T11:46:25.621Z,23.58
2022-08-21T11:51:38.594Z,23.63
2022-08-21T11:56:47.627Z,23.65
2022-08-21T12:01:52.612Z,23.96
2022-08-21T12:06:57.688Z,23.76
2022-08-21T12:12:07.145Z,24.09
2022-08-21T12:17:20.426Z,24.26
2022-08-21T12:22:39.096Z,24.15
2022-08-21T12:27:50.096Z,24.64
2022-08-21T12:32:59.647Z,24.54
2022-08-21T12:38:11.705Z,25.00
2022-08-21T12:43:19.147Z,24.96
2022-08-21T12:48:27.176Z,24.97
2022-08-21T12:53:35.284Z,25.07
2022-08-21T12:58:38.360Z,25.31
2022-08-21T13:03:43.345Z,25.73
2022-08-21T13:08:49.872Z,25.82
2022-08-21T13:13:53.761Z,25.70
2022-08-21T13:19:01.281Z,25.92
2022-08-21T13:24:41.402Z,26.14
2022-08-21T13:29:42.047Z,26.25
2022-08-21T13:34:54.097Z,26.28
2022-08-21T13:39:59.142Z,26.60
2022-08-21T13:45:02.966Z,26.03
2022-08-21T13:50:08.650Z,25.82
2022-08-21T13:55:19.706Z,25.46
2022-08-21T14:00:29.996Z,25.10
2022-08-21T14:05:35.435Z,25.09
2022-08-21T14:10:45.742Z,24.96
2022-08-21T14:15:58.047Z,24.90
2022-08-21T14:21:08.522Z,25.23
2022-08-21T14:26:13.184Z,25.66
2022-08-21T14:31:18.520Z,25.83
2022-08-21T14:36:22.785Z,26.27
2022-08-21T14:41:33.259Z,26.29
2022-08-21T14:46:45.772Z,25.74
2022-08-21T14:52:00.198Z,25.97
2022-08-21T14:57:09.704Z,26.02
2022-08-21T15:02:15.293Z,25.51
2022-08-21T15:07:18.907Z,25.57
2022-08-21T15:12:23.077Z,25.42
2022-08-21T15:17:26.492Z,25.38
2022-08-21T15:22:29.373Z,25.24
2022-08-21T15:27:33.411Z,25.18
2022-08-21T15:32:36.103Z,25.06
2022-08-21T15:37:39.001Z,25.03
2022-08-21T15:42:44.797Z,24.98
2022-08-21T15:47:47.815Z,24.89
2022-08-21T15:52:52.789Z,24.94
2022-08-21T15:58:05.293Z,24.89
2022-08-21T16:03:12.715Z,24.96
2022-08-21T16:08:15.493Z,24.92
2022-08-21T16:13:25.625Z,24.79
2022-08-21T16:18:28.723Z,24.74
2022-08-21T16:23:31.548Z,24.67
2022-08-21T16:28:38.296Z,24.36
2022-08-21T16:33:45.032Z,24.64
2022-08-21T16:38:48.644Z,24.62
2022-08-21T16:43:53.138Z,24.61
2022-08-21T16:48:56.424Z,24.24
2022-08-21T16:54:00.038Z,23.76
2022-08-21T16:59:05.955Z,24.54
2022-08-21T17:04:08.791Z,24.42
2022-08-21T17:09:12.408Z,24.35
2022-08-21T17:14:20.574Z,24.11
2022-08-21T17:19:23.416Z,23.27
2022-08-21T17:24:26.537Z,24.13
2022-08-21T17:29:38.672Z,23.94
2022-08-21T17:34:41.760Z,23.80
2022-08-21T17:39:44.591Z,23.90
2022-08-21T17:44:48.984Z,23.68
2022-08-21T17:49:52.168Z,23.70
2022-08-21T17:54:55.189Z,23.58
2022-08-21T17:59:59.476Z,23.37
2022-08-21T18:05:29.634Z,23.42
2022-08-21T18:10:33.799Z,23.37
2022-08-21T18:15:42.704Z,23.19
2022-08-21T18:20:45.823Z,22.96
2022-08-21T18:25:57.559Z,22.96
2022-08-21T18:31:02.197Z,22.89
2022-08-21T18:36:05.601Z,22.78
2022-08-21T18:41:10.409Z,22.75
2022-08-21T18:46:16.185Z,22.45
2022-08-21T18:51:19.268Z,22.64
2022-08-21T18:56:22.737Z,22.05
2022-08-21T19:01:30.372Z,22.38
2022-08-21T19:06:36.112Z,22.36
2022-08-21T19:11:44.148Z,22.27
2022-08-21T19:16:50.006Z,22.10
2022-08-21T19:22:10.961Z,21.06
2022-08-21T19:27:23.148Z,22.06
2022-08-21T19:32:32.095Z,22.12
2022-08-21T19:37:37.429Z,21.81
2022-08-21T19:42:43.895Z,21.11
2022-08-21T19:47:50.816Z,21.96
2022-08-21T19:52:54.373Z,21.58
2022-08-21T19:58:00.197Z,21.91
2022-08-21T20:03:07.984Z,21.57
2022-08-21T20:08:20.057Z,22.05
2022-08-21T20:13:23.977Z,22.19
2022-08-21T20:18:29.941Z,21.52
2022-08-21T20:23:35.012Z,21.56
2022-08-21T20:34:03.120Z,21.56
2022-08-21T20:39:09.329Z,21.41
2022-08-21T20:44:15.783Z,21.49
2022-08-21T20:49:25.927Z,21.58
2022-08-21T20:54:36.102Z,21.84
2022-08-21T20:59:46.117Z,21.66
2022-08-21T21:04:58.242Z,21.45
2022-08-21T21:10:05.803Z,21.59
2022-08-21T21:15:14.000Z,21.82
2022-08-21T21:20:27.125Z,21.83
2022-08-21T21:25:40.069Z,21.75
2022-08-21T21:30:55.597Z,21.11
2022-08-21T21:36:14.981Z,21.79
2022-08-21T21:41:28.537Z,21.57
2022-08-21T21:46:38.588Z,21.66
2022-08-21T21:52:00.149Z,21.36
2022-08-21T21:57:12.651Z,20.62
2022-08-21T22:02:31.804Z,21.22
2022-08-21T22:07:45.223Z,20.94
2022-08-21T22:13:09.945Z,19.29
2022-08-21T22:18:23.613Z,21.45
2022-08-21T22:23:33.061Z,21.45
2022-08-21T22:28:47.470Z,21.00
2022-08-21T22:34:03.568Z,21.50
2022-08-21T22:39:19.512Z,21.30
2022-08-21T22:49:52.381Z,20.31
2022-08-21T22:55:01.084Z,19.64
2022-08-21T23:00:16.789Z,21.15
2022-08-21T23:05:25.070Z,21.31
2022-08-21T23:10:31.474Z,20.68
2022-08-21T23:15:41.715Z,20.92
2022-08-21T23:20:56.216Z,20.28
2022-08-21T23:26:22.685Z,20.63
2022-08-21T23:31:32.623Z,21.05
2022-08-21T23:37:07.334Z,20.24
2022-08-21T23:42:26.132Z,21.12
2022-08-21T23:47:40.789Z,20.71
2022-08-21T23:53:00.485Z,20.80
2022-08-21T23:58:20.860Z,20.37
